Time;durP1;ratioP1;P1;durP2;ratioP2;P2;SDS_P1;SDS_P2;PMS_P1;PMS_P2;Temp;Humidity;BMP_temperature;BMP_pressure;BME280_temperature;BME280_humidity;BME280_pressure;Samples;Min_cycle;Max_cycle;Signal;HPM_P1;HPM_P2
2023/04/11 00:00:26;;;;;;;5.95;0.88;;;11.00;99.90;;;;;;5096877;28;20032;-76
2023/04/11 00:02:53;;;;;;;9.32;1.20;;;11.00;99.90;;;;;;5078716;28;20036;-76
2023/04/11 00:05:19;;;;;;;12.13;1.27;;;10.90;99.90;;;;;;5096779;28;20111;-75
2023/04/11 00:07:45;;;;;;;14.98;1.92;;;10.90;99.90;;;;;;5078472;28;20035;-76
2023/04/11 00:10:11;;;;;;;15.68;2.03;;;10.90;99.90;;;;;;5062023;28;20123;-76
2023/04/11 00:12:37;;;;;;;16.33;2.22;;;10.90;99.90;;;;;;5096723;28;20074;-76
2023/04/11 00:15:03;;;;;;;12.95;2.15;;;11.00;99.90;;;;;;5077141;28;20036;-76
2023/04/11 00:17:30;;;;;;;17.92;3.28;;;11.00;99.90;;;;;;5078593;28;20400;-76
2023/04/11 00:19:56;;;;;;;30.63;5.47;;;11.00;99.90;;;;;;5078348;28;20032;-76
2023/04/11 00:22:23;;;;;;;34.15;4.85;;;11.00;99.90;;;;;;5096618;28;20058;-76
2023/04/11 00:24:49;;;;;;;30.40;6.32;;;11.00;99.90;;;;;;5096372;28;20020;-76
2023/04/11 00:27:15;;;;;;;26.63;4.10;;;11.10;99.90;;;;;;5078164;28;20416;-75
2023/04/11 00:29:40;;;;;;;30.73;4.65;;;11.10;99.90;;;;;;5078775;28;20048;-76
2023/04/11 00:32:06;;;;;;;30.13;5.45;;;11.10;99.90;;;;;;5078541;28;20403;-75
2023/04/11 00:34:33;;;;;;;29.63;4.10;;;11.10;99.90;;;;;;5095909;28;20032;-75
2023/04/11 00:36:58;;;;;;;29.38;4.32;;;11.10;99.90;;;;;;5061466;28;20039;-75
2023/04/11 00:39:25;;;;;;;31.65;4.57;;;11.20;99.90;;;;;;5096137;28;20028;-76
2023/04/11 00:41:51;;;;;;;34.60;5.68;;;11.20;99.90;;;;;;5061359;28;20028;-76
2023/04/11 00:44:16;;;;;;;34.30;5.47;;;11.20;99.90;;;;;;5095931;28;20043;-75
2023/04/11 00:46:44;;;;;;;31.83;5.32;;;11.20;99.90;;;;;;5061064;28;20105;-75
2023/04/11 00:49:10;;;;;;;33.70;4.47;;;11.10;99.90;;;;;;5078475;28;20032;-75
2023/04/11 00:51:36;;;;;;;32.08;4.90;;;11.10;99.90;;;;;;5077920;28;20029;-75
2023/04/11 00:54:02;;;;;;;32.28;4.78;;;11.10;99.90;;;;;;5077823;28;20086;-75
2023/04/11 00:56:28;;;;;;;32.17;4.85;;;11.10;99.90;;;;;;5077645;28;20082;-76
2023/04/11 00:58:54;;;;;;;36.45;4.95;;;11.10;99.90;;;;;;5077480;28;20028;-76
2023/04/11 01:01:22;;;;;;;26.52;4.80;;;11.10;99.90;;;;;;5078002;28;20066;-76
2023/04/11 01:03:48;;;;;;;36.25;4.85;;;11.00;99.90;;;;;;5077878;28;20127;-76
2023/04/11 01:06:17;;;;;;;25.88;4.60;;;11.00;99.90;;;;;;5095375;28;20032;-75
2023/04/11 01:08:45;;;;;;;28.05;4.32;;;11.00;99.90;;;;;;5095532;28;20032;-76
2023/04/11 01:11:11;;;;;;;28.27;4.68;;;11.00;99.90;;;;;;5095515;28;20028;-75
2023/04/11 01:13:40;;;;;;;40.70;4.32;;;10.90;99.90;;;;;;5077088;28;20088;-76
2023/04/11 01:16:07;;;;;;;35.30;4.47;;;10.80;99.90;;;;;;5095452;28;20102;-75
2023/04/11 01:18:32;;;;;;;30.38;5.03;;;10.80;99.90;;;;;;5060686;28;20372;-75
2023/04/11 01:20:59;;;;;;;36.75;4.68;;;10.70;99.90;;;;;;5094948;28;20039;-75
2023/04/11 01:23:26;;;;;;;32.15;4.20;;;10.70;99.90;;;;;;5094904;28;20504;-75
2023/04/11 01:25:52;;;;;;;34.33;4.20;;;10.70;99.90;;;;;;5094896;28;20024;-76
2023/04/11 01:28:18;;;;;;;30.92;4.18;;;10.70;99.90;;;;;;5095074;28;20035;-75
2023/04/11 01:30:44;;;;;;;36.85;4.50;;;10.70;99.90;;;;;;5095130;28;20026;-75
2023/04/11 01:33:10;;;;;;;24.27;4.57;;;10.70;99.90;;;;;;5095100;28;20082;-75
2023/04/11 01:35:37;;;;;;;29.55;4.25;;;10.70;99.90;;;;;;5094721;28;20066;-75
2023/04/11 01:38:03;;;;;;;31.80;4.30;;;10.80;99.90;;;;;;5095223;28;20031;-75
2023/04/11 01:40:31;;;;;;;30.52;4.50;;;10.70;99.90;;;;;;5094606;28;20035;-75
2023/04/11 01:42:58;;;;;;;37.85;5.28;;;10.70;99.90;;;;;;5076653;28;20528;-75
2023/04/11 01:45:28;;;;;;;34.92;4.70;;;10.70;99.90;;;;;;5094807;28;20076;-75
2023/04/11 01:47:54;;;;;;;38.13;4.68;;;10.60;99.90;;;;;;5076219;28;20048;-76
2023/04/11 01:50:20;;;;;;;32.03;4.35;;;10.60;99.90;;;;;;5094753;28;20029;-75
2023/04/11 01:52:47;;;;;;;31.75;4.72;;;10.60;99.90;;;;;;5076230;28;20039;-76
2023/04/11 01:55:13;;;;;;;43.35;4.90;;;10.60;99.90;;;;;;5076149;28;20027;-76
2023/04/11 01:57:38;;;;;;;34.00;4.65;;;10.50;99.90;;;;;;5094628;28;20024;-76
2023/04/11 02:00:05;;;;;;;29.25;4.72;;;10.50;99.90;;;;;;5076447;28;20035;-76
2023/04/11 02:02:31;;;;;;;28.17;4.43;;;10.50;99.90;;;;;;5076318;28;20072;-76
2023/04/11 02:04:56;;;;;;;34.80;4.25;;;10.50;99.90;;;;;;5059672;28;20074;-77
2023/04/11 02:07:22;;;;;;;33.05;5.07;;;10.50;99.90;;;;;;5094516;28;20476;-77
2023/04/11 02:09:48;;;;;;;36.50;5.45;;;10.40;99.90;;;;;;5094397;28;20024;-76
2023/04/11 02:12:14;;;;;;;33.20;4.82;;;10.40;99.90;;;;;;5076223;28;20028;-77
2023/04/11 02:14:44;;;;;;;34.78;4.35;;;10.40;99.90;;;;;;5059597;28;20028;-77
2023/04/11 02:17:11;;;;;;;35.45;4.25;;;10.40;99.90;;;;;;5094315;28;20482;-77
2023/04/11 02:19:39;;;;;;;33.95;4.50;;;10.40;99.90;;;;;;5076639;28;20024;-77
2023/04/11 02:22:07;;;;;;;35.22;5.45;;;10.40;99.90;;;;;;5094286;28;20032;-77
2023/04/11 02:24:33;;;;;;;39.10;5.07;;;10.40;99.90;;;;;;5094621;28;20070;-77
2023/04/11 02:27:00;;;;;;;38.40;5.10;;;10.40;99.90;;;;;;5059814;28;20471;-77
2023/04/11 02:29:26;;;;;;;32.42;4.80;;;10.30;99.90;;;;;;5076399;28;20436;-77
2023/04/11 02:31:52;;;;;;;30.13;3.90;;;10.20;99.90;;;;;;5076074;28;20460;-77
2023/04/11 02:34:18;;;;;;;30.58;4.85;;;10.20;99.90;;;;;;5076371;28;20036;-76
2023/04/11 02:36:44;;;;;;;35.85;4.55;;;10.10;99.90;;;;;;5093992;28;20028;-76
2023/04/11 02:39:10;;;;;;;30.70;4.13;;;10.20;99.90;;;;;;5075270;28;20384;-76
2023/04/11 02:41:42;;;;;;;33.28;4.80;;;10.10;99.90;;;;;;5076192;28;20027;-76
2023/04/11 02:44:10;;;;;;;25.98;3.08;;;10.20;99.90;;;;;;5093914;28;20067;-76
2023/04/11 02:46:35;;;;;;;22.02;2.55;;;10.30;99.90;;;;;;5076107;28;20032;-75
2023/04/11 02:49:02;;;;;;;18.17;2.40;;;10.20;99.90;;;;;;5076310;28;20058;-76
2023/04/11 02:51:28;;;;;;;17.35;2.65;;;10.10;99.90;;;;;;5075358;28;20032;-75
2023/04/11 02:53:54;;;;;;;13.57;2.13;;;10.00;99.90;;;;;;5059555;28;20082;-76
2023/04/11 02:56:20;;;;;;;14.63;2.00;;;10.00;99.90;;;;;;5075327;28;20032;-76
2023/04/11 02:58:46;;;;;;;14.30;1.95;;;10.00;99.90;;;;;;5093735;28;20024;-76
2023/04/11 03:01:13;;;;;;;20.10;2.20;;;10.00;99.90;;;;;;5076288;28;20024;-76
2023/04/11 03:03:40;;;;;;;16.25;2.50;;;10.00;99.90;;;;;;5075922;28;20032;-75
2023/04/11 03:06:06;;;;;;;20.30;2.63;;;10.00;99.90;;;;;;5075517;28;20492;-75
2023/04/11 03:08:34;;;;;;;18.73;2.25;;;10.00;99.90;;;;;;5076117;28;20048;-76
2023/04/11 03:11:01;;;;;;;16.52;2.17;;;10.00;99.90;;;;;;5043146;28;20035;-76
2023/04/11 03:13:26;;;;;;;20.13;2.97;;;10.10;99.90;;;;;;5058959;28;20036;-76
2023/04/11 03:15:52;;;;;;;17.70;2.80;;;10.00;99.90;;;;;;5059004;28;20037;-76
2023/04/11 03:18:19;;;;;;;18.48;2.33;;;10.10;99.90;;;;;;5058930;28;20111;-77
2023/04/11 03:20:45;;;;;;;14.63;2.15;;;10.00;99.90;;;;;;5075808;28;20384;-76
2023/04/11 03:23:11;;;;;;;14.13;2.00;;;10.10;99.90;;;;;;5075776;28;20055;-77
2023/04/11 03:25:37;;;;;;;17.52;2.38;;;10.20;99.90;;;;;;5075853;28;20452;-77
2023/04/11 03:28:04;;;;;;;22.63;2.25;;;10.20;99.90;;;;;;5059518;28;20051;-77
2023/04/11 03:30:29;;;;;;;21.70;3.00;;;10.20;99.90;;;;;;5093205;28;20086;-77
2023/04/11 03:32:59;;;;;;;20.90;3.05;;;10.30;99.90;;;;;;5075519;28;20036;-76
2023/04/11 03:35:24;;;;;;;24.15;2.75;;;10.30;99.90;;;;;;5075816;28;20105;-76
2023/04/11 03:37:50;;;;;;;22.50;2.92;;;10.20;99.90;;;;;;5093666;28;20464;-76
2023/04/11 03:40:17;;;;;;;29.13;3.63;;;10.20;99.90;;;;;;5093351;28;20035;-76
2023/04/11 03:42:46;;;;;;;32.40;4.32;;;10.20;99.90;;;;;;5058592;28;20051;-75
2023/04/11 03:45:12;;;;;;;22.13;3.20;;;10.20;99.90;;;;;;5093033;28;20028;-75
2023/04/11 03:47:39;;;;;;;21.00;3.13;;;10.10;99.90;;;;;;5054616;28;20071;-75
2023/04/11 03:50:09;;;;;;;24.23;2.75;;;10.10;99.90;;;;;;5074011;28;20492;-75
2023/04/11 03:52:34;;;;;;;24.02;2.67;;;10.00;99.90;;;;;;5075905;28;20047;-76
2023/04/11 03:55:01;;;;;;;24.67;2.45;;;10.00;99.90;;;;;;5075510;28;20033;-77
2023/04/11 03:57:27;;;;;;;20.23;2.30;;;9.90;99.90;;;;;;5076739;28;20028;-78
2023/04/11 03:59:55;;;;;;;22.40;2.60;;;9.90;99.90;;;;;;5077204;28;20350;-78
2023/04/11 04:02:21;;;;;;;17.75;2.90;;;9.90;99.90;;;;;;5075960;28;20033;-76
2023/04/11 04:04:53;;;;;;;24.08;2.40;;;9.90;99.90;;;;;;5075581;28;20037;-75
2023/04/11 04:07:21;;;;;;;17.88;1.83;;;9.90;99.90;;;;;;5076599;28;20035;-76
2023/04/11 04:09:46;;;;;;;16.42;1.92;;;9.90;99.90;;;;;;5075375;28;20033;-76
2023/04/11 04:12:12;;;;;;;13.82;1.88;;;9.90;99.90;;;;;;5076502;28;20040;-76
2023/04/11 04:14:38;;;;;;;11.30;1.75;;;9.80;99.90;;;;;;5075641;28;20082;-76
2023/04/11 04:17:03;;;;;;;14.10;1.73;;;9.80;99.90;;;;;;5075151;28;20108;-77
2023/04/11 04:19:29;;;;;;;13.07;1.52;;;9.70;99.90;;;;;;5075037;28;20028;-77
2023/04/11 04:21:56;;;;;;;13.45;1.40;;;9.80;99.90;;;;;;5074903;28;20028;-77
2023/04/11 04:24:24;;;;;;;13.77;1.77;;;9.70;99.90;;;;;;5074738;28;20037;-77
2023/04/11 04:26:51;;;;;;;11.82;1.55;;;9.80;99.90;;;;;;5074868;28;20032;-76
2023/04/11 04:29:17;;;;;;;14.02;1.30;;;9.70;99.90;;;;;;5076315;28;20484;-76
2023/04/11 04:31:43;;;;;;;17.55;1.98;;;9.80;99.90;;;;;;5076426;28;20106;-76
2023/04/11 04:34:08;;;;;;;12.52;1.30;;;9.80;99.90;;;;;;5075169;28;20127;-76
2023/04/11 04:36:48;;;;;;;15.55;1.70;;;9.80;99.90;;;;;;5075475;28;20215;-76
2023/04/11 04:39:18;;;;;;;12.60;1.42;;;9.80;99.90;;;;;;5059514;28;20039;-75
2023/04/11 04:41:45;;;;;;;12.43;1.67;;;9.80;99.90;;;;;;5074547;28;20032;-76
2023/04/11 04:44:11;;;;;;;17.73;1.48;;;9.80;99.90;;;;;;5058735;28;20350;-76
2023/04/11 04:46:36;;;;;;;13.68;1.75;;;9.80;99.90;;;;;;5075650;28;20452;-75
2023/04/11 04:49:04;;;;;;;13.07;1.67;;;9.80;99.90;;;;;;5095756;28;20042;-76
2023/04/11 04:51:30;;;;;;;11.88;1.45;;;9.90;99.90;;;;;;5095585;28;20031;-76
2023/04/11 04:53:58;;;;;;;13.73;1.48;;;9.80;99.90;;;;;;5061080;28;20388;-76
2023/04/11 04:56:27;;;;;;;13.95;1.73;;;9.80;99.90;;;;;;5095792;28;20089;-76
2023/04/11 04:58:53;;;;;;;9.98;0.95;;;9.80;99.90;;;;;;5077953;28;20076;-76
2023/04/11 05:01:20;;;;;;;16.48;1.90;;;9.80;99.90;;;;;;5095360;28;20099;-76
2023/04/11 05:03:49;;;;;;;8.15;1.30;;;9.80;99.90;;;;;;5077673;28;20040;-75
2023/04/11 05:06:15;;;;;;;13.45;2.22;;;9.80;99.90;;;;;;5095573;28;20020;-76
2023/04/11 05:08:41;;;;;;;11.07;1.20;;;9.80;99.90;;;;;;5077268;28;20031;-75
2023/04/11 05:11:06;;;;;;;13.13;1.38;;;9.80;99.90;;;;;;5095546;28;20028;-75
2023/04/11 05:13:33;;;;;;;16.88;2.13;;;9.90;99.90;;;;;;5095491;28;20028;-76
2023/04/11 05:15:59;;;;;;;10.05;1.33;;;9.90;99.90;;;;;;5095600;28;20039;-76
2023/04/11 05:18:25;;;;;;;15.35;1.70;;;9.80;99.90;;;;;;5095575;28;20024;-74
2023/04/11 05:20:51;;;;;;;11.45;1.63;;;9.80;99.90;;;;;;5060460;28;20098;-75
2023/04/11 05:23:16;;;;;;;10.77;1.45;;;9.80;99.90;;;;;;5060384;28;20036;-74
2023/04/11 05:25:42;;;;;;;10.00;1.15;;;9.80;99.90;;;;;;5060479;28;20472;-75
2023/04/11 05:28:08;;;;;;;8.57;0.80;;;9.80;99.90;;;;;;5095094;28;20027;-76
2023/04/11 05:30:33;;;;;;;12.57;0.82;;;9.80;99.90;;;;;;5077448;28;20395;-75
2023/04/11 05:32:59;;;;;;;11.45;1.10;;;9.80;99.90;;;;;;5094788;28;20044;-76
2023/04/11 05:35:25;;;;;;;10.77;1.00;;;9.80;99.90;;;;;;5060398;28;20038;-76
2023/04/11 05:37:51;;;;;;;8.05;0.80;;;9.80;99.90;;;;;;5076918;28;20028;-76
2023/04/11 05:40:17;;;;;;;6.72;0.73;;;9.80;99.90;;;;;;5077157;28;20123;-75
2023/04/11 05:42:42;;;;;;;10.95;0.90;;;9.80;99.90;;;;;;5095068;28;20072;-76
2023/04/11 05:45:09;;;;;;;15.35;1.00;;;9.70;99.90;;;;;;5094646;28;20523;-77
2023/04/11 05:47:34;;;;;;;10.55;1.23;;;9.70;99.90;;;;;;5076689;28;20052;-76
2023/04/11 05:50:00;;;;;;;8.18;0.93;;;9.80;99.90;;;;;;5043895;28;20039;-77
2023/04/11 05:52:26;;;;;;;7.72;0.85;;;9.80;99.90;;;;;;5076696;28;20471;-77
2023/04/11 05:54:51;;;;;;;9.70;0.80;;;9.80;99.90;;;;;;5077277;28;20444;-77
2023/04/11 05:57:17;;;;;;;13.30;0.90;;;9.80;99.90;;;;;;5059749;28;20388;-76
2023/04/11 05:59:43;;;;;;;8.70;0.93;;;9.90;99.90;;;;;;5076402;28;20123;-76
2023/04/11 06:02:08;;;;;;;7.65;0.70;;;9.90;99.90;;;;;;5094677;28;20040;-76
2023/04/11 06:04:34;;;;;;;11.68;0.93;;;9.90;99.90;;;;;;5094377;28;20043;-76
2023/04/11 06:07:02;;;;;;;10.48;1.20;;;10.00;99.90;;;;;;5076649;28;20032;-77
2023/04/11 06:09:28;;;;;;;9.23;0.90;;;10.00;99.90;;;;;;5094468;28;20032;-77
2023/04/11 06:11:54;;;;;;;11.30;0.93;;;10.00;99.90;;;;;;5059814;28;20089;-79
2023/04/11 06:14:19;;;;;;;9.77;0.80;;;10.10;99.90;;;;;;5075392;28;20434;-77
2023/04/11 06:16:45;;;;;;;8.00;0.63;;;10.10;99.90;;;;;;5094524;28;20054;-78
2023/04/11 06:19:10;;;;;;;7.28;0.73;;;10.20;99.90;;;;;;5076349;28;20455;-75
2023/04/11 06:21:36;;;;;;;7.43;0.90;;;10.20;99.90;;;;;;5094081;28;20024;-74
2023/04/11 06:24:06;;;;;;;6.68;1.42;;;10.20;99.90;;;;;;5059302;28;20039;-73
2023/04/11 06:26:32;;;;;;;5.72;0.68;;;10.30;99.90;;;;;;5075708;28;20024;-75
2023/04/11 06:28:58;;;;;;;8.55;0.55;;;10.40;99.90;;;;;;5094469;28;20027;-74
2023/04/11 06:31:24;;;;;;;12.15;0.90;;;10.50;99.90;;;;;;5093932;28;20467;-75
2023/04/11 06:33:49;;;;;;;8.20;0.60;;;10.50;99.90;;;;;;5075725;28;20032;-75
2023/04/11 06:36:15;;;;;;;6.72;0.68;;;10.60;99.90;;;;;;5076705;28;20367;-74
2023/04/11 06:38:42;;;;;;;8.70;0.80;;;10.60;99.90;;;;;;5075630;28;20377;-75
2023/04/11 06:41:07;;;;;;;6.93;1.13;;;10.50;99.90;;;;;;5076087;28;20051;-74
2023/04/11 06:43:33;;;;;;;6.57;0.60;;;10.60;99.90;;;;;;5075486;28;20063;-75
2023/04/11 06:45:59;;;;;;;6.78;0.80;;;10.60;99.60;;;;;;5058848;28;20040;-73
2023/04/11 06:48:25;;;;;;;7.22;0.95;;;10.50;99.50;;;;;;5075715;28;20456;-72
2023/04/11 06:50:50;;;;;;;6.93;0.77;;;10.50;99.50;;;;;;5075724;28;20111;-75
2023/04/11 06:53:16;;;;;;;8.55;0.75;;;10.60;99.70;;;;;;5094363;28;20024;-75
2023/04/11 06:55:42;;;;;;;11.60;0.85;;;10.70;99.50;;;;;;5076075;28;20356;-75
2023/04/11 06:58:07;;;;;;;9.10;0.80;;;10.70;99.50;;;;;;5058968;28;20035;-74
2023/04/11 07:00:33;;;;;;;14.07;1.88;;;10.80;99.50;;;;;;5075894;28;20024;-74
2023/04/11 07:02:59;;;;;;;9.73;2.33;;;10.80;99.60;;;;;;5075383;28;20103;-74
2023/04/11 07:05:25;;;;;;;9.20;1.40;;;10.80;99.60;;;;;;5093434;28;20039;-75
2023/04/11 07:07:52;;;;;;;8.75;1.30;;;10.80;99.70;;;;;;5093479;28;20020;-73
2023/04/11 07:10:18;;;;;;;13.57;1.55;;;10.90;99.90;;;;;;5093540;28;20021;-75
2023/04/11 07:12:44;;;;;;;13.27;1.55;;;10.90;99.80;;;;;;5093481;28;20046;-75
2023/04/11 07:15:09;;;;;;;9.45;1.40;;;11.00;99.90;;;;;;5093750;28;20468;-74
2023/04/11 07:17:36;;;;;;;12.93;1.55;;;11.10;99.50;;;;;;5093210;28;20063;-74
2023/04/11 07:20:05;;;;;;;12.00;1.98;;;11.10;99.60;;;;;;5093301;28;20491;-74
2023/04/11 07:22:31;;;;;;;10.40;1.00;;;11.20;99.40;;;;;;5093622;28;20107;-74
2023/04/11 07:24:57;;;;;;;10.10;1.33;;;11.30;99.00;;;;;;5095606;28;20528;-74
2023/04/11 07:27:23;;;;;;;10.32;0.90;;;11.30;99.30;;;;;;5097126;28;20024;-74
2023/04/11 07:29:49;;;;;;;15.77;1.80;;;11.40;99.10;;;;;;5097383;28;20355;-75
2023/04/11 07:32:15;;;;;;;9.70;0.80;;;11.40;98.90;;;;;;5097351;28;20024;-75
2023/04/11 07:34:41;;;;;;;11.20;1.17;;;11.40;99.30;;;;;;5079006;28;20028;-76
2023/04/11 07:37:06;;;;;;;11.18;1.23;;;11.40;98.90;;;;;;5097118;28;20396;-76
2023/04/11 07:39:32;;;;;;;11.05;1.45;;;11.40;98.50;;;;;;5097090;28;20039;-75
2023/04/11 07:41:58;;;;;;;10.40;1.33;;;11.30;98.20;;;;;;5079131;28;20028;-75
2023/04/11 07:44:23;;;;;;;9.45;1.02;;;11.30;97.90;;;;;;5078595;28;20095;-76
2023/04/11 07:46:49;;;;;;;7.22;1.00;;;11.30;97.80;;;;;;5078895;28;20118;-75
2023/04/11 07:49:15;;;;;;;8.38;1.15;;;11.40;97.40;;;;;;5097323;28;20479;-75
2023/04/11 07:51:40;;;;;;;6.47;0.95;;;11.50;97.30;;;;;;5096661;28;20468;-75
2023/04/11 07:54:08;;;;;;;7.30;0.80;;;11.60;96.50;;;;;;5096802;28;20035;-75
2023/04/11 07:56:34;;;;;;;6.40;0.63;;;11.60;95.80;;;;;;5078551;28;20491;-76
2023/04/11 07:59:00;;;;;;;9.63;0.77;;;11.50;95.50;;;;;;5061675;28;20028;-77
2023/04/11 08:01:26;;;;;;;8.00;1.15;;;11.40;95.40;;;;;;5078558;28;20020;-75
2023/04/11 08:03:55;;;;;;;12.13;1.10;;;11.50;95.10;;;;;;5096823;28;20472;-75
2023/04/11 08:06:21;;;;;;;8.10;1.05;;;11.60;94.10;;;;;;5096703;28;20024;-75
2023/04/11 08:08:47;;;;;;;8.20;0.80;;;11.60;94.50;;;;;;5078151;28;20077;-75
2023/04/11 08:11:14;;;;;;;6.90;1.10;;;11.70;94.20;;;;;;5096644;28;20484;-74
2023/04/11 08:13:40;;;;;;;8.23;0.65;;;11.80;94.00;;;;;;5078737;28;20102;-74
2023/04/11 08:16:08;;;;;;;8.32;0.73;;;11.80;94.00;;;;;;5061414;28;20040;-74
2023/04/11 08:18:35;;;;;;;8.90;1.33;;;12.00;94.20;;;;;;5078322;28;20024;-75
2023/04/11 08:21:01;;;;;;;10.75;1.00;;;12.10;93.40;;;;;;5078186;28;20069;-74
2023/04/11 08:23:28;;;;;;;6.45;0.90;;;12.20;92.80;;;;;;5096233;28;20495;-74
2023/04/11 08:25:54;;;;;;;13.40;1.10;;;12.30;92.40;;;;;;5078391;28;20036;-76
2023/04/11 08:28:21;;;;;;;9.20;0.82;;;12.40;92.20;;;;;;5078866;28;20032;-76
2023/04/11 08:30:47;;;;;;;4.95;0.50;;;12.50;91.00;;;;;;5045279;28;20036;-74
2023/04/11 08:33:14;;;;;;;4.75;0.50;;;12.50;88.70;;;;;;5078484;28;20032;-74
2023/04/11 08:35:41;;;;;;;7.35;1.00;;;12.50;86.80;;;;;;5094884;28;20028;-75
2023/04/11 08:38:08;;;;;;;8.10;1.05;;;12.60;86.50;;;;;;5077717;28;20032;-74
2023/04/11 08:40:34;;;;;;;7.82;0.90;;;12.60;86.60;;;;;;5095994;28;20028;-74
2023/04/11 08:43:00;;;;;;;5.93;0.57;;;12.60;87.00;;;;;;5078431;28;20039;-73
2023/04/11 08:45:26;;;;;;;7.95;0.73;;;12.80;86.20;;;;;;5095896;28;20029;-73
2023/04/11 08:47:52;;;;;;;7.50;0.90;;;12.80;86.60;;;;;;5095733;28;20048;-73
2023/04/11 08:50:19;;;;;;;8.63;0.88;;;12.80;86.60;;;;;;5096477;28;20446;-73
2023/04/11 08:52:47;;;;;;;8.25;1.25;;;12.80;84.80;;;;;;5095859;28;20028;-74
2023/04/11 08:55:13;;;;;;;7.93;1.02;;;12.70;83.60;;;;;;5095520;28;20024;-74
2023/04/11 08:57:38;;;;;;;9.20;1.00;;;12.70;85.00;;;;;;5077595;28;20104;-75
2023/04/11 09:00:12;;;;;;;4.60;0.65;;;12.80;84.90;;;;;;5077636;28;20115;-74
2023/04/11 09:03:00;;;;;;;6.68;0.65;;;12.90;85.50;;;;;;5095930;28;20073;-73
2023/04/11 09:05:31;;;;;;;7.60;0.63;;;13.10;85.60;;;;;;5077359;28;20031;-75
2023/04/11 09:07:58;;;;;;;6.38;0.65;;;13.20;82.50;;;;;;5077301;28;20032;-74
2023/04/11 09:10:25;;;;;;;9.05;1.00;;;13.20;81.50;;;;;;5077428;28;20357;-75
2023/04/11 09:12:51;;;;;;;6.78;0.90;;;13.00;80.80;;;;;;5077742;28;20063;-75
2023/04/11 09:15:19;;;;;;;7.95;1.08;;;13.00;81.60;;;;;;5077281;28;20075;-75
2023/04/11 09:17:45;;;;;;;6.20;0.73;;;12.90;82.00;;;;;;5095369;28;20106;-75
2023/04/11 09:20:24;;;;;;;10.45;1.23;;;13.00;82.50;;;;;;5095434;28;20036;-74
2023/04/11 09:22:52;;;;;;;9.80;0.93;;;13.10;82.40;;;;;;5094835;28;20477;-74
2023/04/11 09:25:19;;;;;;;8.80;0.98;;;13.20;81.30;;;;;;5077421;28;20032;-74
2023/04/11 09:27:45;;;;;;;8.75;1.00;;;13.20;79.70;;;;;;5094951;28;20041;-74
2023/04/11 09:30:22;;;;;;;8.95;1.20;;;13.10;78.90;;;;;;5076936;28;20035;-74
2023/04/11 09:32:49;;;;;;;7.25;1.38;;;12.90;79.80;;;;;;5077737;28;20028;-74
2023/04/11 09:35:17;;;;;;;9.40;1.05;;;12.90;81.10;;;;;;5094963;28;20055;-74
2023/04/11 09:37:43;;;;;;;8.80;1.33;;;12.80;81.70;;;;;;5095035;28;20398;-75
2023/04/11 09:40:10;;;;;;;8.68;1.17;;;12.70;82.90;;;;;;5094705;28;20024;-74
2023/04/11 09:42:36;;;;;;;12.27;1.17;;;12.80;83.60;;;;;;5076545;28;20031;-75
2023/04/11 09:45:03;;;;;;;6.15;0.70;;;13.00;81.80;;;;;;5094259;28;20028;-74
2023/04/11 09:47:32;;;;;;;11.85;1.38;;;13.10;80.60;;;;;;5075560;28;20100;-74
2023/04/11 09:49:59;;;;;;;9.63;1.05;;;13.20;78.20;;;;;;5094337;28;20048;-73
2023/04/11 09:52:26;;;;;;;8.02;1.20;;;13.00;78.80;;;;;;5059874;28;20098;-74
2023/04/11 09:54:52;;;;;;;8.25;1.35;;;12.80;79.60;;;;;;5094384;28;20039;-76
2023/04/11 09:57:21;;;;;;;8.55;0.73;;;12.70;80.80;;;;;;5076234;28;20039;-73
2023/04/11 09:59:48;;;;;;;8.95;1.42;;;12.50;81.10;;;;;;5094313;28;20032;-73
2023/04/11 10:02:14;;;;;;;9.68;0.70;;;12.60;81.80;;;;;;5076714;28;20024;-74
2023/04/11 10:04:39;;;;;;;5.40;0.70;;;12.80;80.90;;;;;;5093922;28;20050;-74
2023/04/11 10:07:13;;;;;;;6.68;0.95;;;13.00;78.20;;;;;;5094272;28;20035;-74
2023/04/11 10:09:44;;;;;;;12.13;1.00;;;13.20;76.30;;;;;;5094300;28;20456;-72
2023/04/11 10:12:10;;;;;;;6.60;0.82;;;13.30;76.00;;;;;;5094378;28;20077;-73
2023/04/11 10:14:36;;;;;;;8.23;0.70;;;13.50;75.10;;;;;;5093801;28;20414;-72
2023/04/11 10:17:19;;;;;;;7.07;0.68;;;13.70;74.00;;;;;;5094136;28;20082;-72
2023/04/11 10:19:46;;;;;;;8.80;0.60;;;13.90;71.20;;;;;;5094386;28;20069;-72
2023/04/11 10:22:47;;;;;;;4.47;0.43;;;14.10;70.40;;;;;;5076123;28;20062;-72
2023/04/11 10:25:19;;;;;;;3.92;0.45;;;14.00;71.60;;;;;;5040280;28;20043;-72
2023/04/11 10:27:52;;;;;;;5.60;0.50;;;14.10;73.10;;;;;;5093531;28;20522;-73
2023/04/11 10:30:38;;;;;;;8.02;0.93;;;14.40;73.00;;;;;;5093895;28;20250;-73
2023/04/11 10:33:10;;;;;;;7.25;0.93;;;14.60;71.40;;;;;;5093887;28;20410;-72
2023/04/11 10:35:58;;;;;;;6.78;0.60;;;14.60;70.00;;;;;;5094382;28;20028;-72
2023/04/11 10:38:42;;;;;;;2.03;0.32;;;14.20;67.50;;;;;;5076048;28;20533;-73
2023/04/11 10:41:17;;;;;;;4.30;0.60;;;14.10;67.20;;;;;;5094176;28;20051;-75
2023/04/11 10:43:43;;;;;;;4.32;0.50;;;14.00;68.00;;;;;;5075333;28;20028;-72
2023/04/11 10:46:29;;;;;;;4.97;0.73;;;14.00;66.70;;;;;;5093972;28;20040;-73
2023/04/11 10:48:57;;;;;;;4.32;0.47;;;14.10;67.00;;;;;;5070948;28;20048;-72
2023/04/11 10:51:25;;;;;;;5.50;1.02;;;14.30;67.20;;;;;;5073798;28;20086;-73
2023/04/11 10:53:51;;;;;;;5.30;0.50;;;14.40;66.80;;;;;;5073628;28;20032;-74
2023/04/11 10:56:39;;;;;;;6.50;0.70;;;14.40;67.10;;;;;;5072086;28;20036;-73
2023/04/11 10:59:04;;;;;;;4.38;0.43;;;14.40;64.40;;;;;;5072799;28;20033;-76
2023/04/11 11:01:30;;;;;;;6.75;0.50;;;14.20;62.90;;;;;;5073536;28;20346;-72
2023/04/11 11:03:56;;;;;;;2.55;0.30;;;14.00;62.50;;;;;;5073391;28;20067;-73
2023/04/11 11:06:23;;;;;;;4.10;0.30;;;14.00;62.50;;;;;;5073524;28;20112;-72
2023/04/11 11:08:48;;;;;;;5.70;0.65;;;14.00;62.10;;;;;;5073720;28;20021;-73
2023/04/11 11:11:18;;;;;;;6.55;0.80;;;14.00;62.90;;;;;;5073794;28;20111;-73
2023/04/11 11:13:52;;;;;;;4.53;0.63;;;14.10;62.20;;;;;;5072524;28;20048;-72
2023/04/11 11:16:24;;;;;;;5.80;0.60;;;14.10;62.80;;;;;;5073094;28;20055;-73
2023/04/11 11:18:51;;;;;;;3.40;0.40;;;14.30;63.40;;;;;;5073197;28;20027;-73
2023/04/11 11:21:20;;;;;;;6.05;0.60;;;14.60;64.50;;;;;;5055429;28;20025;-73
2023/04/11 11:24:12;;;;;;;6.43;1.02;;;14.70;62.60;;;;;;5073562;28;20073;-72
2023/04/11 11:26:39;;;;;;;8.45;0.60;;;14.90;62.60;;;;;;5068042;28;20055;-79
2023/04/11 11:29:06;;;;;;;4.30;0.40;;;15.00;63.30;;;;;;5072241;28;20544;-77
2023/04/11 11:31:44;;;;;;;6.88;0.55;;;15.20;61.40;;;;;;5073171;28;20126;-75
2023/04/11 11:34:10;;;;;;;8.25;1.00;;;15.10;61.20;;;;;;5073530;28;20025;-75
2023/04/11 11:36:41;;;;;;;3.90;0.55;;;15.20;62.20;;;;;;5072880;28;20096;-75
2023/04/11 11:39:09;;;;;;;5.25;0.85;;;15.30;62.70;;;;;;5073554;28;20563;-75
2023/04/11 11:41:35;;;;;;;4.25;0.47;;;15.30;60.30;;;;;;5073492;28;20032;-76
2023/04/11 11:44:02;;;;;;;7.45;1.05;;;15.40;60.40;;;;;;5072169;28;20115;-76
2023/04/11 11:46:30;;;;;;;3.97;0.88;;;15.30;60.60;;;;;;5073086;28;20113;-75
2023/04/11 11:49:06;;;;;;;4.32;0.40;;;15.30;60.90;;;;;;5077266;28;20040;-76
2023/04/11 11:51:42;;;;;;;4.38;0.45;;;15.30;60.50;;;;;;5093602;28;20042;-76
2023/04/11 11:54:10;;;;;;;4.90;0.43;;;15.40;61.30;;;;;;5093372;28;20146;-76
2023/04/11 11:56:40;;;;;;;5.70;0.57;;;15.50;61.10;;;;;;5075081;28;20359;-74
2023/04/11 11:59:07;;;;;;;5.93;0.60;;;15.60;61.20;;;;;;5092704;28;20452;-75
2023/04/11 12:01:34;;;;;;;5.93;1.02;;;15.60;59.70;;;;;;5075412;28;20028;-77
2023/04/11 12:04:00;;;;;;;4.60;0.90;;;15.80;60.90;;;;;;5092803;28;20471;-76
2023/04/11 12:06:30;;;;;;;5.03;0.55;;;15.80;59.70;;;;;;5075463;28;20036;-75
2023/04/11 12:09:06;;;;;;;7.10;0.73;;;15.80;59.40;;;;;;5093330;28;20043;-77
2023/04/11 12:11:40;;;;;;;8.18;0.95;;;15.90;60.20;;;;;;5094733;28;20036;-74
2023/04/11 12:14:06;;;;;;;6.28;0.65;;;15.90;60.20;;;;;;5096606;28;20032;-74
2023/04/11 12:16:32;;;;;;;7.20;0.52;;;15.80;59.60;;;;;;5096781;28;20027;-74
2023/04/11 12:18:59;;;;;;;9.02;1.02;;;15.70;58.60;;;;;;5078009;28;20430;-74
2023/04/11 12:21:25;;;;;;;4.45;0.57;;;15.80;59.20;;;;;;5078459;28;20023;-73
2023/04/11 12:23:51;;;;;;;5.15;0.70;;;15.80;58.80;;;;;;5096324;28;20020;-74
2023/04/11 12:26:18;;;;;;;6.65;0.73;;;15.80;59.30;;;;;;5096595;28;20032;-73
2023/04/11 12:28:44;;;;;;;6.00;1.40;;;15.90;59.10;;;;;;5096641;28;20417;-73
2023/04/11 12:31:11;;;;;;;5.93;0.60;;;15.90;58.90;;;;;;5096771;28;20059;-73
2023/04/11 12:33:37;;;;;;;5.22;0.93;;;15.90;59.20;;;;;;5096197;28;20115;-74
2023/04/11 12:36:06;;;;;;;6.45;0.82;;;16.00;59.00;;;;;;5096445;28;20443;-74
2023/04/11 12:38:32;;;;;;;5.15;1.02;;;16.00;57.30;;;;;;5077844;28;20024;-73
2023/04/11 12:40:58;;;;;;;6.65;1.08;;;15.90;57.80;;;;;;5078099;28;20119;-74
2023/04/11 12:43:24;;;;;;;4.70;0.98;;;15.80;55.80;;;;;;5096281;28;20124;-73